Time;durP1;ratioP1;P1;durP2;ratioP2;P2;SDS_P1;SDS_P2;PMS_P1;PMS_P2;Temp;Humidity;BMP_temperature;BMP_pressure;BME280_temperature;BME280_humidity;BME280_pressure;Samples;Min_cycle;Max_cycle;Signal;HPM_P1;HPM_P2
2022/05/29 00:02:25;;;;;;;0.50;0.50;;;;;;;23.11;56.77;94703.53;5090263;28;20694;-67
2022/05/29 00:04:52;;;;;;;1.20;1.10;;;;;;;23.04;57.08;94692.66;5089982;28;20237;-69
2022/05/29 00:07:20;;;;;;;1.70;0.93;;;;;;;22.95;56.79;94715.28;5090211;28;20195;-69
2022/05/29 00:09:49;;;;;;;0.50;0.50;;;;;;;22.85;58.40;94705.03;5090430;28;20195;-70
2022/05/29 00:12:17;;;;;;;0.70;0.70;;;;;;;22.98;57.82;94696.66;5089065;28;20211;-70
2022/05/29 00:14:47;;;;;;;7.33;1.20;;;;;;;23.08;57.90;94693.50;5090518;28;20199;-70
2022/05/29 00:17:16;;;;;;;1.17;1.07;;;;;;;22.83;58.93;94689.34;5090066;28;20238;-69
2022/05/29 00:19:44;;;;;;;1.37;1.03;;;;;;;22.95;58.78;94715.28;5089835;28;20192;-68
2022/05/29 00:22:17;;;;;;;0.57;0.57;;;;;;;22.64;59.45;94723.88;5090004;28;20214;-66
2022/05/29 00:24:47;;;;;;;1.50;0.90;;;;;;;22.47;60.43;94708.03;5090155;28;20221;-67
2022/05/29 00:27:16;;;;;;;0.67;0.67;;;;;;;23.03;58.61;94696.41;5090692;28;20191;-67
2022/05/29 00:29:43;;;;;;;1.57;1.13;;;;;;;23.25;57.12;94679.09;5088806;28;20207;-69
2022/05/29 00:32:11;;;;;;;0.93;0.80;;;;;;;23.37;56.52;94664.94;5089511;28;20248;-68
2022/05/29 00:34:38;;;;;;;1.10;1.00;;;;;;;23.05;57.73;94610.56;5089422;28;20199;-66
2022/05/29 00:37:07;;;;;;;0.83;0.83;;;;;;;22.81;58.59;94606.06;5087866;28;20191;-68
2022/05/29 00:39:34;;;;;;;0.43;0.43;;;;;;;22.69;59.18;94611.47;5089418;28;20195;-67
2022/05/29 00:42:06;;;;;;;0.70;0.70;;;;;;;22.15;60.38;94626.94;5089908;28;20191;-69
2022/05/29 00:44:33;;;;;;;0.53;0.53;;;;;;;22.61;59.36;94644.41;5089550;28;20195;-67
2022/05/29 00:47:10;;;;;;;1.33;1.23;;;;;;;22.82;58.77;94629.03;5089463;28;20611;-68
2022/05/29 00:49:40;;;;;;;1.40;1.30;;;;;;;22.94;58.75;94607.59;5089378;28;20433;-66
2022/05/29 00:52:17;;;;;;;1.57;1.13;;;;;;;22.83;59.14;94593.16;5088026;28;20271;-67
2022/05/29 00:54:53;;;;;;;1.03;1.00;;;;;;;22.58;59.55;94613.03;5089577;28;20210;-68
2022/05/29 00:57:29;;;;;;;0.60;0.60;;;;;;;22.46;58.86;94663.78;5089821;28;20256;-67
2022/05/29 01:00:07;;;;;;;1.60;1.27;;;;;;;22.10;60.75;94687.78;5089671;28;20633;-69
2022/05/29 01:02:33;;;;;;;2.47;0.90;;;;;;;22.73;58.87;94615.03;5089708;28;20436;-68
2022/05/29 01:05:04;;;;;;;0.47;0.33;;;;;;;22.92;58.54;94596.47;5089087;28;20914;-68
2022/05/29 01:07:32;;;;;;;1.03;0.87;;;;;;;22.97;57.66;94588.19;5087839;28;20901;-68
2022/05/29 01:10:00;;;;;;;0.73;0.73;;;;;;;22.94;58.10;94583.53;5089557;28;20245;-68
2022/05/29 01:12:52;;;;;;;1.67;1.57;;;;;;;22.61;59.36;94571.53;5087839;28;20720;-71
2022/05/29 01:15:28;;;;;;;0.20;0.20;;;;;;;22.80;58.94;94572.47;5089375;28;20806;-68
2022/05/29 01:17:54;;;;;;;0.40;0.40;;;;;;;22.72;59.11;94592.06;5089324;28;20475;-67
2022/05/29 01:20:39;;;;;;;0.87;0.70;;;;;;;22.88;58.19;94606.28;5087863;28;20260;-68
2022/05/29 01:23:28;;;;;;;0.93;0.63;;;;;;;22.65;58.86;94586.53;5089276;28;20191;-68
2022/05/29 01:26:13;;;;;;;0.43;0.43;;;;;;;22.41;60.45;94594.56;5089584;28;20229;-69
2022/05/29 01:28:45;;;;;;;0.40;0.40;;;;;;;22.23;59.82;94654.66;5089364;28;20494;-68
2022/05/29 01:31:21;;;;;;;2.30;1.50;;;;;;;22.35;59.68;94609.28;5089294;28;20187;-68
2022/05/29 01:34:03;;;;;;;6.30;1.33;;;;;;;22.63;59.03;94578.09;5089033;28;20218;-68
2022/05/29 01:37:12;;;;;;;1.53;1.10;;;;;;;21.84;61.42;94605.38;5089193;28;20520;-67
2022/05/29 01:39:41;;;;;;;1.03;0.87;;;;;;;22.11;61.41;94577.25;5059271;28;20211;-67
2022/05/29 01:42:14;;;;;;;0.40;0.40;;;;;;;22.46;59.72;94573.00;5087651;28;20570;-66
2022/05/29 01:44:46;;;;;;;1.77;1.00;;;;;;;22.24;59.95;94565.47;5089055;28;20199;-67
2022/05/29 01:47:19;;;;;;;2.10;1.70;;;;;;;22.37;59.26;94569.66;5089150;28;20986;-68
2022/05/29 01:49:56;;;;;;;0.63;0.50;;;;;;;22.33;58.81;94563.44;5092858;28;20674;-68
2022/05/29 01:52:47;;;;;;;0.93;0.90;;;;;;;22.33;58.36;94576.78;5093329;28;20492;-68
2022/05/29 01:55:18;;;;;;;1.03;0.93;;;;;;;22.62;57.70;94570.41;5092367;28;20700;-67
2022/05/29 01:57:50;;;;;;;0.80;0.70;;;;;;;22.33;57.62;94568.00;5092297;28;20445;-68
2022/05/29 02:00:23;;;;;;;0.67;0.67;;;;;;;22.32;57.72;94567.22;5092289;28;20330;-67
2022/05/29 02:02:53;;;;;;;0.57;0.57;;;;;;;21.85;58.21;94563.47;5092521;28;20444;-68
2022/05/29 02:05:27;;;;;;;0.53;0.50;;;;;;;21.88;58.02;94560.13;5092438;28;20936;-68
2022/05/29 02:08:03;;;;;;;0.70;0.70;;;;;;;21.60;58.48;94561.88;5093027;28;20290;-67
2022/05/29 02:10:45;;;;;;;2.30;1.10;;;;;;;21.53;59.04;94549.09;5092475;28;20429;-67
2022/05/29 02:13:20;;;;;;;0.43;0.43;;;;;;;22.08;57.73;94556.56;5092123;28;20562;-69
2022/05/29 02:15:56;;;;;;;0.43;0.43;;;;;;;22.21;57.27;94560.78;5092420;28;20437;-67
2022/05/29 02:18:39;;;;;;;1.13;0.90;;;;;;;22.28;57.45;94558.31;5091999;28;21022;-67
2022/05/29 02:21:11;;;;;;;0.33;0.33;;;;;;;22.24;57.33;94554.78;5091954;28;20429;-69
2022/05/29 02:23:43;;;;;;;0.30;0.30;;;;;;;22.40;56.98;94534.28;5092013;28;20813;-69
2022/05/29 02:26:17;;;;;;;0.23;0.23;;;;;;;22.32;57.60;94545.88;5092227;28;20445;-65
2022/05/29 02:28:49;;;;;;;2.57;1.53;;;;;;;22.32;57.22;94545.88;5092191;28;20517;-66
2022/05/29 02:31:27;;;;;;;0.50;0.50;;;;;;;22.10;57.08;94543.66;5091560;28;20936;-69
2022/05/29 02:34:17;;;;;;;0.43;0.30;;;;;;;21.92;57.67;94537.03;5092149;28;20569;-68
2022/05/29 02:36:58;;;;;;;0.40;0.40;;;;;;;22.22;56.94;94530.31;5090643;28;20439;-66
2022/05/29 02:39:31;;;;;;;0.30;0.30;;;;;;;22.39;56.71;94514.03;5096687;28;20460;-67
2022/05/29 02:42:32;;;;;;;0.30;0.30;;;;;;;22.24;57.16;94514.75;5096031;28;20506;-66
2022/05/29 02:45:05;;;;;;;1.13;0.67;;;;;;;21.98;57.66;94487.66;5091618;28;20666;-66
2022/05/29 02:47:51;;;;;;;0.63;0.63;;;;;;;22.17;57.54;94499.28;5091987;28;20437;-67
2022/05/29 02:50:34;;;;;;;0.70;0.70;;;;;;;22.27;57.38;94505.28;5091501;28;20443;-67
2022/05/29 02:53:07;;;;;;;0.20;0.20;;;;;;;22.49;56.16;94492.22;5091356;28;20492;-65
2022/05/29 02:55:35;;;;;;;0.33;0.33;;;;;;;22.19;57.01;94492.88;5091439;28;20677;-68
2022/05/29 02:58:07;;;;;;;0.50;0.50;;;;;;;22.12;56.37;94483.53;5091486;28;20191;-69
2022/05/29 03:01:22;;;;;;;0.20;0.20;;;;;;;22.38;56.42;94504.47;5091881;28;20562;-66
2022/05/29 03:04:21;;;;;;;0.60;0.60;;;;;;;22.49;56.12;94505.56;5086680;28;20579;-66
2022/05/29 03:07:09;;;;;;;0.20;0.20;;;;;;;22.24;57.01;94492.63;5091372;28;20262;-67
2022/05/29 03:09:45;;;;;;;1.00;0.80;;;;;;;22.13;57.73;94489.66;5091755;28;20274;-68
2022/05/29 03:12:51;;;;;;;0.97;0.97;;;;;;;21.91;58.62;94471.44;5091131;28;20445;-69
2022/05/29 03:15:32;;;;;;;0.70;0.60;;;;;;;22.00;58.38;94474.78;5091245;28;20448;-67
2022/05/29 03:18:17;;;;;;;0.57;0.50;;;;;;;21.96;58.08;94473.88;5091006;28;20476;-69
2022/05/29 03:21:09;;;;;;;0.10;0.10;;;;;;;22.08;57.87;94476.50;5090894;28;20444;-69
2022/05/29 03:23:42;;;;;;;2.00;1.07;;;;;;;22.17;57.61;94474.50;5090519;28;20274;-69
2022/05/29 03:26:42;;;;;;;1.03;0.43;;;;;;;22.07;57.49;94459.75;5090547;28;21030;-67
2022/05/29 03:29:16;;;;;;;1.93;1.63;;;;;;;22.10;57.57;94459.06;5079332;28;20449;-66
2022/05/29 03:31:45;;;;;;;0.90;0.90;;;;;;;22.26;57.08;94479.72;5090301;28;20682;-67
2022/05/29 03:34:14;;;;;;;0.47;0.47;;;;;;;22.34;56.82;94468.88;5090938;28;20213;-68
2022/05/29 03:36:49;;;;;;;1.63;1.17;;;;;;;22.19;57.26;94471.50;5090999;28;20445;-68
2022/05/29 03:39:16;;;;;;;0.20;0.20;;;;;;;22.10;56.80;94467.06;5090618;28;20432;-68
2022/05/29 03:41:46;;;;;;;0.33;0.33;;;;;;;22.32;56.57;94465.78;5090572;28;20203;-66
2022/05/29 03:44:15;;;;;;;0.70;0.67;;;;;;;22.06;57.17;94470.75;5090027;28;20975;-66
2022/05/29 03:46:44;;;;;;;0.40;0.33;;;;;;;22.16;56.85;94472.94;5090161;28;20658;-68
2022/05/29 03:49:12;;;;;;;0.47;0.47;;;;;;;22.02;57.45;94465.28;5090483;28;20452;-70
2022/05/29 03:51:39;;;;;;;0.43;0.43;;;;;;;22.04;56.64;94456.97;5090487;28;20452;-66
2022/05/29 03:54:07;;;;;;;0.43;0.43;;;;;;;22.06;57.15;94462.75;5089983;28;20275;-69
2022/05/29 03:56:35;;;;;;;0.10;0.10;;;;;;;21.99;57.28;94467.88;5090393;28;20199;-68
2022/05/29 03:59:02;;;;;;;0.40;0.40;;;;;;;21.94;57.79;94468.09;5090183;28;20481;-65
2022/05/29 04:01:30;;;;;;;0.30;0.30;;;;;;;21.92;57.63;94457.00;5090235;28;20425;-65
2022/05/29 04:03:57;;;;;;;0.27;0.27;;;;;;;21.65;58.01;94441.66;5090513;28;20457;-68
2022/05/29 04:06:27;;;;;;;0.87;0.80;;;;;;;21.93;57.77;94456.66;5090152;28;20476;-67
2022/05/29 04:14:29;;;;;;;1.20;1.07;;;;;;;21.97;56.76;94451.41;5090631;28;20481;-69
2022/05/29 04:16:55;;;;;;;1.23;1.13;;;;;;;21.99;57.23;94457.19;5090899;28;20421;-67
2022/05/29 04:19:22;;;;;;;0.27;0.27;;;;;;;21.72;57.02;94441.88;5090095;28;20510;-70
2022/05/29 04:21:51;;;;;;;0.30;0.30;;;;;;;21.70;57.93;94442.22;5089853;28;20535;-69
2022/05/29 04:24:20;;;;;;;2.30;1.47;;;;;;;21.91;57.38;94460.78;5089910;28;20575;-65
2022/05/29 04:26:48;;;;;;;0.40;0.40;;;;;;;22.06;57.62;94457.41;5089868;28;20444;-68
2022/05/29 04:29:18;;;;;;;0.53;0.53;;;;;;;22.11;57.60;94460.63;5089594;28;20437;-68
2022/05/29 04:34:35;;;;;;;0.50;0.30;;;;;;;21.81;58.03;94445.22;5089908;28;20485;-66
2022/05/29 04:37:03;;;;;;;0.30;0.30;;;;;;;21.91;58.24;94460.78;5089600;28;20445;-66
2022/05/29 04:39:34;;;;;;;0.93;0.93;;;;;;;22.17;57.45;94467.28;5089497;28;20479;-65
2022/05/29 04:42:01;;;;;;;0.50;0.50;;;;;;;21.97;57.48;94465.53;5089439;28;20479;-67
2022/05/29 04:44:30;;;;;;;7.47;1.90;;;;;;;22.14;57.15;94459.16;5089838;28;20195;-67
2022/05/29 04:47:01;;;;;;;0.50;0.50;;;;;;;22.22;56.84;94466.28;5088659;28;20433;-67
2022/05/29 04:49:29;;;;;;;0.20;0.20;;;;;;;22.36;56.61;94461.31;5089575;28;20971;-65
2022/05/29 04:51:56;;;;;;;0.67;0.67;;;;;;;22.41;56.69;94463.00;5089789;28;20433;-69
2022/05/29 04:54:24;;;;;;;0.50;0.40;;;;;;;22.21;57.41;94458.59;5089651;28;20279;-65
2022/05/29 04:56:50;;;;;;;1.13;0.70;;;;;;;22.43;56.72;94456.19;5089754;28;20957;-68
2022/05/29 04:59:17;;;;;;;0.20;0.20;;;;;;;22.58;56.49;94457.38;5089458;28;20199;-67
2022/05/29 05:01:44;;;;;;;0.33;0.33;;;;;;;22.62;56.21;94448.34;5088111;28;20187;-67
2022/05/29 05:04:12;;;;;;;0.40;0.40;;;;;;;22.26;57.82;94461.81;5089558;28;20951;-67
2022/05/29 05:06:39;;;;;;;0.47;0.47;;;;;;;22.46;57.18;94458.19;5089734;28;20207;-68
2022/05/29 05:09:06;;;;;;;0.50;0.50;;;;;;;22.43;57.48;94456.19;5090228;28;20202;-67
2022/05/29 05:11:33;;;;;;;8.63;0.40;;;;;;;22.45;57.23;94459.28;5091568;28;20248;-68
2022/05/29 05:13:59;;;;;;;0.70;0.70;;;;;;;22.52;57.35;94464.81;5089386;28;20469;-71
2022/05/29 05:16:26;;;;;;;0.17;0.17;;;;;;;22.34;57.35;94447.53;5089383;28;20437;-70
2022/05/29 05:18:54;;;;;;;0.57;0.57;;;;;;;22.61;56.20;94452.13;5088006;28;20200;-71
2022/05/29 05:21:21;;;;;;;0.30;0.23;;;;;;;22.31;57.44;94448.22;5089367;28;20652;-67
2022/05/29 05:23:48;;;;;;;0.23;0.23;;;;;;;22.58;56.22;94452.03;5090531;28;20288;-68
2022/05/29 05:26:16;;;;;;;1.87;0.97;;;;;;;22.67;56.42;94447.31;5092888;28;20708;-68
2022/05/29 05:28:43;;;;;;;0.97;0.97;;;;;;;22.87;55.91;94444.44;5093391;28;20506;-67
2022/05/29 05:31:10;;;;;;;1.17;0.63;;;;;;;22.95;54.23;94435.47;5091681;28;20457;-69
2022/05/29 05:33:37;;;;;;;3.17;2.20;;;;;;;22.78;54.96;94432.34;5093023;28;20269;-66
2022/05/29 05:36:04;;;;;;;2.10;1.17;;;;;;;22.70;55.47;94433.28;5093373;28;20346;-66
2022/05/29 05:38:32;;;;;;;0.40;0.40;;;;;;;22.77;54.81;94423.53;5093341;28;20199;-67
2022/05/29 05:40:58;;;;;;;0.60;0.60;;;;;;;22.69;56.00;94448.53;5092978;28;20580;-69
2022/05/29 05:43:25;;;;;;;0.47;0.47;;;;;;;22.52;55.77;94448.78;5094862;28;20206;-68
2022/05/29 05:45:52;;;;;;;0.83;0.83;;;;;;;22.94;55.48;94449.16;5094904;28;20206;-65
2022/05/29 05:48:19;;;;;;;0.50;0.33;;;;;;;23.20;54.24;94436.09;5093212;28;21052;-65
2022/05/29 05:50:46;;;;;;;0.57;0.57;;;;;;;22.72;54.98;94442.50;5092583;28;20879;-70
2022/05/29 05:53:12;;;;;;;0.10;0.10;;;;;;;23.08;54.78;94444.19;5092916;28;20203;-69
2022/05/29 05:55:39;;;;;;;0.50;0.50;;;;;;;23.03;54.75;94431.84;5091835;28;20199;-69
2022/05/29 05:58:06;;;;;;;0.30;0.30;;;;;;;22.98;54.18;94426.78;5093897;28;20582;-67
2022/05/29 06:00:33;;;;;;;0.40;0.40;;;;;;;23.16;54.33;94435.22;5093767;28;20727;-69
2022/05/29 06:03:00;;;;;;;0.20;0.20;;;;;;;23.17;54.46;94437.53;5093210;28;20184;-68
2022/05/29 06:05:27;;;;;;;0.23;0.23;;;;;;;23.21;54.79;94434.94;5092795;28;20199;-67
2022/05/29 06:07:54;;;;;;;0.30;0.30;;;;;;;23.53;54.46;94444.56;5092338;28;20195;-73
2022/05/29 06:10:21;;;;;;;0.83;0.80;;;;;;;23.26;54.16;94431.25;5092607;28;20236;-68
2022/05/29 06:12:48;;;;;;;0.50;0.50;;;;;;;22.87;53.10;94449.78;5092625;28;20179;-70
2022/05/29 06:15:15;;;;;;;0.40;0.37;;;;;;;23.53;53.44;94459.81;5095804;28;20231;-68
2022/05/29 06:17:42;;;;;;;0.20;0.20;;;;;;;23.54;52.76;94450.69;5101863;28;20229;-68
2022/05/29 06:20:09;;;;;;;0.30;0.30;;;;;;;23.65;52.36;94420.34;5096277;28;20628;-69
2022/05/29 06:22:38;;;;;;;0.57;0.57;;;;;;;23.58;52.47;94435.47;5092329;28;20589;-69
2022/05/29 06:25:05;;;;;;;0.50;0.50;;;;;;;23.56;51.37;94441.16;5091991;28;20589;-70
2022/05/29 06:27:40;;;;;;;0.70;0.70;;;;;;;24.20;51.58;94446.03;5091341;28;20199;-73
2022/05/29 06:30:10;;;;;;;0.50;0.50;;;;;;;24.58;51.12;94419.25;5091054;28;20222;-67
2022/05/29 06:32:37;;;;;;;1.20;1.10;;;;;;;24.38;51.66;94400.91;5096471;28;20271;-69
2022/05/29 06:35:11;;;;;;;0.53;0.53;;;;;;;24.00;50.19;94415.00;5090952;28;20215;-66
2022/05/29 06:37:38;;;;;;;1.10;1.07;;;;;;;23.80;51.11;94421.44;5094667;28;20267;-73
2022/05/29 06:40:07;;;;;;;1.00;0.60;;;;;;;24.52;50.57;94414.56;5090646;28;20688;-68
2022/05/29 06:42:35;;;;;;;0.20;0.20;;;;;;;24.75;49.91;94402.75;5091323;28;20191;-72
2022/05/29 06:45:06;;;;;;;0.30;0.30;;;;;;;24.74;51.00;94411.91;5091341;28;20226;-69
2022/05/29 06:47:33;;;;;;;0.40;0.40;;;;;;;24.68;50.78;94397.25;5091460;28;20655;-71
2022/05/29 06:50:00;;;;;;;0.40;0.40;;;;;;;24.70;48.50;94389.66;5091160;28;20184;-69
2022/05/29 06:52:31;;;;;;;0.20;0.20;;;;;;;24.70;49.51;94402.25;5090171;28;20223;-67
2022/05/29 06:55:00;;;;;;;0.20;0.20;;;;;;;24.30;48.29;94418.72;5091011;28;20332;-75
2022/05/29 06:57:44;;;;;;;0.50;0.30;;;;;;;24.79;47.47;94408.19;5090633;28;20225;-64
2022/05/29 07:08:36;;;;;;;0.80;0.77;;;;;;;25.32;47.71;94403.72;5111128;28;20274;-66
2022/05/29 07:11:09;;;;;;;0.40;0.40;;;;;;;25.41;48.08;94380.13;5111369;28;20630;-72
2022/05/29 07:13:36;;;;;;;0.53;0.53;;;;;;;25.43;48.14;94386.69;5111691;28;20206;-71
2022/05/29 07:16:04;;;;;;;0.40;0.40;;;;;;;24.89;47.37;94397.66;5109696;28;20256;-74
2022/05/29 07:18:32;;;;;;;0.50;0.47;;;;;;;25.48;46.63;94391.75;5111451;28;20193;-69
2022/05/29 07:21:03;;;;;;;0.30;0.30;;;;;;;25.54;46.58;94373.41;5111822;28;20315;-72
2022/05/29 07:23:30;;;;;;;0.63;0.50;;;;;;;25.52;47.67;94364.97;5111378;28;20564;-67
2022/05/29 07:25:58;;;;;;;5.30;0.57;;;;;;;25.78;46.46;94378.38;5111093;28;20225;-72
2022/05/29 07:28:25;;;;;;;1.27;1.17;;;;;;;25.36;45.53;94380.41;5109491;28;20364;-67
2022/05/29 07:30:54;;;;;;;0.70;0.63;;;;;;;25.77;46.82;94382.16;5111073;28;20501;-73
2022/05/29 07:33:26;;;;;;;1.17;0.97;;;;;;;25.56;45.83;94382.66;5109001;28;20198;-75
2022/05/29 07:35:53;;;;;;;1.40;1.27;;;;;;;25.74;44.85;94367.59;5111092;28;20198;-74
2022/05/29 07:38:20;;;;;;;0.53;0.47;;;;;;;25.64;45.41;94372.78;5110823;28;20669;-72
2022/05/29 07:40:46;;;;;;;0.40;0.40;;;;;;;25.76;45.21;94365.31;5110997;28;20198;-73
2022/05/29 07:43:20;;;;;;;1.27;1.17;;;;;;;26.06;45.44;94378.75;5094648;28;20198;-70
2022/05/29 07:45:47;;;;;;;0.60;0.60;;;;;;;25.57;45.83;94370.00;5089228;28;20199;-72
2022/05/29 07:48:17;;;;;;;1.97;1.30;;;;;;;26.18;45.96;94381.22;5089961;28;20191;-71
2022/05/29 07:50:44;;;;;;;2.93;2.50;;;;;;;26.37;46.42;94372.97;5090461;28;20225;-74
2022/05/29 07:53:11;;;;;;;4.30;2.17;;;;;;;26.44;46.36;94378.44;5090174;28;20191;-69
2022/05/29 07:55:38;;;;;;;2.23;1.33;;;;;;;26.33;45.10;94374.09;5090044;28;20222;-74
2022/05/29 07:58:07;;;;;;;0.40;0.40;;;;;;;26.47;45.92;94360.81;5090235;28;20252;-72
2022/05/29 08:00:34;;;;;;;0.30;0.30;;;;;;;26.61;45.91;94361.72;5090119;28;20187;-71
2022/05/29 08:03:03;;;;;;;2.00;1.23;;;;;;;26.55;45.93;94357.06;5090217;28;20199;-72
2022/05/29 08:05:33;;;;;;;0.50;0.50;;;;;;;26.61;45.53;94348.28;5089739;28;20191;-72
2022/05/29 08:08:03;;;;;;;0.30;0.30;;;;;;;26.62;45.09;94352.50;5090316;28;20282;-74
2022/05/29 08:10:34;;;;;;;1.07;0.70;;;;;;;26.80;44.62;94358.09;5089780;28;20248;-71
2022/05/29 08:13:01;;;;;;;0.40;0.37;;;;;;;26.81;42.34;94333.53;5090129;28;20203;-73
2022/05/29 08:15:29;;;;;;;0.90;0.80;;;;;;;26.70;43.60;94348.78;5092871;28;20740;-69
2022/05/29 08:18:04;;;;;;;0.40;0.40;;;;;;;26.90;42.49;94342.06;5089502;28;20278;-71
2022/05/29 08:20:31;;;;;;;1.80;1.17;;;;;;;26.52;42.52;94326.31;5090702;28;20248;-71
2022/05/29 08:22:57;;;;;;;4.90;3.67;;;;;;;26.97;42.70;94339.44;5099320;28;20362;-75
2022/05/29 08:30:55;;;;;;;0.20;0.10;;;;;;;26.46;40.34;94338.53;5100306;28;20198;-71
2022/05/29 08:33:26;;;;;;;0.37;0.37;;;;;;;27.15;40.11;94333.44;5089990;28;20236;-70
2022/05/29 08:35:59;;;;;;;0.50;0.50;;;;;;;27.02;40.17;94327.56;5089328;28;20689;-74
2022/05/29 08:38:26;;;;;;;1.33;0.97;;;;;;;27.39;41.08;94325.56;5100100;28;20657;-69
2022/05/29 08:41:06;;;;;;;0.67;0.67;;;;;;;27.50;40.07;94323.69;5107351;28;20624;-67
2022/05/29 08:43:40;;;;;;;0.60;0.50;;;;;;;27.44;39.54;94327.13;5109588;28;20202;-68
2022/05/29 08:46:16;;;;;;;0.57;0.53;;;;;;;27.39;39.31;94324.81;5109689;28;20198;-68
2022/05/29 08:48:45;;;;;;;1.23;1.07;;;;;;;27.80;38.36;94331.56;5110152;28;20571;-72
2022/05/29 08:51:28;;;;;;;0.50;0.50;;;;;;;27.76;38.76;94320.00;5110790;28;20193;-71
2022/05/29 08:54:35;;;;;;;1.10;0.80;;;;;;;28.10;39.42;94315.97;5110198;28;20240;-65
2022/05/29 08:57:23;;;;;;;1.97;1.70;;;;;;;26.92;37.59;94323.66;5109792;28;20202;-64
2022/05/29 08:59:57;;;;;;;0.70;0.70;;;;;;;27.97;37.57;94322.84;5097351;28;20195;-70
2022/05/29 09:02:56;;;;;;;1.40;1.30;;;;;;;27.47;37.10;94327.16;5092410;28;20685;-67
2022/05/29 09:05:42;;;;;;;0.60;0.60;;;;;;;27.88;35.90;94314.31;5092886;28;20210;-65
2022/05/29 09:08:16;;;;;;;3.23;1.90;;;;;;;27.94;36.14;94324.34;5093218;28;20203;-65
2022/05/29 09:10:46;;;;;;;1.50;1.40;;;;;;;27.99;35.53;94309.75;5093287;28;20237;-67
2022/05/29 09:13:34;;;;;;;0.57;0.57;;;;;;;28.41;35.10;94309.88;5093030;28;20184;-66
2022/05/29 09:16:14;;;;;;;0.20;0.20;;;;;;;28.40;36.24;94305.66;5092843;28;20541;-68
2022/05/29 09:18:50;;;;;;;2.17;1.77;;;;;;;28.49;35.84;94305.28;5092542;28;20780;-74
2022/05/29 09:22:03;;;;;;;2.17;1.00;;;;;;;28.99;36.06;94302.25;5092619;28;20211;-69
2022/05/29 09:24:48;;;;;;;0.33;0.33;;;;;;;28.83;35.82;94298.44;5092473;28;20219;-68
2022/05/29 09:27:16;;;;;;;0.47;0.47;;;;;;;28.96;36.43;94303.03;5093153;28;20704;-69
2022/05/29 09:29:43;;;;;;;0.30;0.30;;;;;;;29.05;35.73;94289.16;5095319;28;20253;-66
2022/05/29 09:32:17;;;;;;;0.40;0.40;;;;;;;28.84;36.34;94295.34;5093980;28;20264;-73
2022/05/29 09:34:55;;;;;;;0.83;0.83;;;;;;;28.79;35.42;94290.34;5095064;28;20698;-70
2022/05/29 09:38:02;;;;;;;0.77;0.77;;;;;;;28.67;35.30;94279.91;5093547;28;20195;-67
2022/05/29 09:40:39;;;;;;;0.40;0.40;;;;;;;28.80;35.82;94281.09;5068368;28;20585;-67
2022/05/29 09:43:19;;;;;;;2.20;1.07;;;;;;;28.76;36.50;94287.63;5092114;28;20195;-70
2022/05/29 09:45:46;;;;;;;0.50;0.50;;;;;;;28.61;36.20;94286.84;5091980;28;20199;-69
2022/05/29 09:51:31;;;;;;;0.50;0.50;;;;;;;28.96;36.79;94243.69;5092905;28;20615;-69
2022/05/29 09:54:05;;;;;;;0.73;0.73;;;;;;;29.15;36.93;94255.25;5094681;28;20681;-67
2022/05/29 09:56:34;;;;;;;0.40;0.33;;;;;;;29.40;36.11;94245.97;5097311;28;20225;-66
2022/05/29 09:59:18;;;;;;;0.60;0.50;;;;;;;29.75;36.66;94247.81;5093208;28;20199;-63
2022/05/29 10:01:48;;;;;;;2.27;0.90;;;;;;;29.53;35.83;94243.59;5091957;28;20202;-70
2022/05/29 10:04:40;;;;;;;0.93;0.93;;;;;;;29.51;36.70;94248.63;5092709;28;20195;-73
2022/05/29 10:07:17;;;;;;;0.50;0.50;;;;;;;29.12;36.28;94254.13;5091134;28;20298;-70
2022/05/29 10:10:14;;;;;;;0.33;0.33;;;;;;;29.11;36.69;94249.06;5091318;28;20199;-71
2022/05/29 10:12:47;;;;;;;6.70;1.93;;;;;;;29.36;36.39;94228.25;5091162;28;20294;-65
2022/05/29 10:15:26;;;;;;;0.60;0.60;;;;;;;29.50;35.75;94218.19;5092211;28;20219;-71
2022/05/29 10:18:09;;;;;;;11.00;4.77;;;;;;;29.97;35.20;94224.16;5092321;28;20191;-71
2022/05/29 10:20:43;;;;;;;1.63;1.03;;;;;;;30.03;35.62;94223.38;5091216;28;20214;-64
2022/05/29 10:23:31;;;;;;;2.30;2.10;;;;;;;29.85;35.25;94233.50;5092327;28;20196;-70
2022/05/29 10:26:16;;;;;;;3.30;1.17;;;;;;;29.70;35.75;94215.81;5091446;28;20272;-75
2022/05/29 10:28:43;;;;;;;0.60;0.60;;;;;;;29.80;35.07;94214.97;5091724;28;20203;-69
2022/05/29 10:31:21;;;;;;;6.23;4.80;;;;;;;29.88;35.17;94219.19;5091421;28;20199;-69
2022/05/29 10:34:11;;;;;;;3.30;2.20;;;;;;;30.12;34.69;94204.81;5091446;28;20210;-69
2022/05/29 10:36:39;;;;;;;0.60;0.60;;;;;;;30.08;34.91;94204.03;5091608;28;20198;-72
2022/05/29 10:39:29;;;;;;;2.30;1.00;;;;;;;30.20;35.63;94206.28;5106492;28;20232;-68
2022/05/29 10:42:03;;;;;;;0.50;0.50;;;;;;;30.63;33.91;94202.16;5112006;28;20197;-69
2022/05/29 10:44:48;;;;;;;0.77;0.60;;;;;;;29.32;34.97;94200.50;5112166;28;20288;-66
2022/05/29 10:47:43;;;;;;;0.50;0.50;;;;;;;29.61;35.40;94213.50;5112002;28;20267;-68
2022/05/29 10:50:52;;;;;;;0.43;0.43;;;;;;;30.15;35.28;94198.59;5112051;28;20281;-71
2022/05/29 10:53:52;;;;;;;0.60;0.60;;;;;;;30.09;34.28;94200.16;5094847;28;20245;-75
2022/05/29 10:56:49;;;;;;;0.67;0.60;;;;;;;30.70;34.09;94202.09;5111764;28;20226;-71
2022/05/29 10:59:50;;;;;;;2.43;0.63;;;;;;;30.07;34.91;94199.81;5111870;28;20194;-66
2022/05/29 11:05:54;;;;;;;0.83;0.83;;;;;;;30.83;33.92;94186.94;5111483;28;20729;-65
2022/05/29 11:08:30;;;;;;;0.73;0.73;;;;;;;30.74;34.00;94196.66;5110834;28;20551;-65
2022/05/29 11:11:49;;;;;;;0.57;0.57;;;;;;;30.14;34.40;94186.25;5111425;28;20178;-64
2022/05/29 11:14:27;;;;;;;3.20;2.90;;;;;;;29.69;34.92;94182.63;5056094;28;20245;-66
2022/05/29 11:17:07;;;;;;;0.90;0.90;;;;;;;29.49;35.39;94183.47;5111145;28;20205;-65
2022/05/29 11:19:55;;;;;;;1.47;1.00;;;;;;;30.19;36.13;94166.91;5111405;28;20713;-67
2022/05/29 11:22:22;;;;;;;0.80;0.80;;;;;;;30.78;34.23;94171.09;5111218;28;20178;-63
2022/05/29 11:25:11;;;;;;;0.93;0.90;;;;;;;30.75;34.16;94144.84;5110758;28;20797;-68
2022/05/29 11:28:09;;;;;;;0.40;0.40;;;;;;;30.55;34.73;94143.88;5109655;28;20267;-64
2022/05/29 11:31:14;;;;;;;0.70;0.70;;;;;;;30.85;33.61;94145.94;5109791;28;20266;-67
2022/05/29 11:34:03;;;;;;;0.60;0.50;;;;;;;30.91;33.61;94125.41;5101818;28;20195;-68
2022/05/29 11:36:42;;;;;;;1.03;1.03;;;;;;;30.96;33.85;94127.69;5111348;27;20224;-66
2022/05/29 11:39:41;;;;;;;0.57;0.57;;;;;;;31.15;33.54;94118.19;5110975;28;20186;-66
2022/05/29 11:42:26;;;;;;;0.43;0.43;;;;;;;31.06;33.84;94117.91;5110925;28;20183;-67
2022/05/29 11:45:19;;;;;;;0.63;0.63;;;;;;;30.24;34.69;94115.13;5110853;27;20669;-65
2022/05/29 11:51:15;;;;;;;1.50;1.00;;;;;;;30.67;34.68;94108.25;5112290;28;20210;-72
2022/05/29 11:54:08;;;;;;;1.10;1.07;;;;;;;30.58;35.08;94099.78;5110522;28;20304;-66
2022/05/29 11:56:42;;;;;;;0.77;0.77;;;;;;;30.89;34.08;94090.63;5093266;28;20226;-66
2022/05/29 11:59:38;;;;;;;1.63;1.53;;;;;;;30.81;33.97;94094.59;5088173;28;20308;-69
2022/05/29 12:02:26;;;;;;;1.37;1.27;;;;;;;30.99;34.26;94083.56;5089852;28;20203;-70
2022/05/29 12:05:16;;;;;;;1.60;1.53;;;;;;;30.66;34.41;94092.38;5090580;28;20230;-65
2022/05/29 12:07:54;;;;;;;1.33;1.23;;;;;;;31.47;33.81;94088.81;5089526;28;20183;-67
2022/05/29 12:10:25;;;;;;;1.43;1.07;;;;;;;31.18;34.37;94093.81;5090369;28;20206;-64
2022/05/29 12:13:02;;;;;;;0.93;0.77;;;;;;;31.37;34.87;94092.44;5090028;28;20185;-62
2022/05/29 12:15:32;;;;;;;0.90;0.83;;;;;;;31.48;34.72;94088.41;5089635;28;20236;-66
2022/05/29 12:18:20;;;;;;;0.80;0.80;;;;;;;31.50;34.26;94077.94;5089986;28;20286;-66
2022/05/29 12:20:54;;;;;;;4.07;1.50;;;;;;;30.93;34.23;94085.19;5089998;28;20239;-67
2022/05/29 12:23:27;;;;;;;1.20;1.10;;;;;;;31.13;34.57;94072.56;5089952;28;20505;-67
2022/05/29 12:26:01;;;;;;;1.27;1.17;;;;;;;31.37;34.55;94076.19;5089189;28;20206;-69
2022/05/29 12:28:38;;;;;;;0.90;0.90;;;;;;;31.13;34.52;94061.00;5089776;28;20715;-65
2022/05/29 12:31:11;;;;;;;1.43;1.33;;;;;;;31.12;34.63;94059.44;5089704;28;20210;-67
2022/05/29 12:33:43;;;;;;;1.83;1.50;;;;;;;30.92;34.52;94063.94;5088996;28;20191;-67
2022/05/29 12:36:20;;;;;;;1.40;1.10;;;;;;;30.77;34.78;94044.38;5090014;28;20254;-67
2022/05/29 12:39:01;;;;;;;0.80;0.80;;;;;;;30.51;35.44;94050.44;5089821;28;20201;-72
2022/05/29 12:41:52;;;;;;;2.17;0.97;;;;;;;30.98;35.64;94059.63;5089423;28;20195;-67
2022/05/29 12:44:57;;;;;;;0.90;0.90;;;;;;;30.78;35.93;94060.19;5088746;28;20726;-66